sensor_id;sensor_type;location;lat;lon;timestamp;pressure;altitude;pressure_sealevel;temperature;humidity
39449;BME280;25151;45.566;9.382;2023-03-26T00:00:01;99276.63;;;20.09;56.63
39449;BME280;25151;45.566;9.382;2023-03-26T00:03:03;99283.00;;;20.10;56.83
39449;BME280;25151;45.566;9.382;2023-03-26T00:06:08;99283.00;;;20.10;56.54
39449;BME280;25151;45.566;9.382;2023-03-26T00:09:10;99283.78;;;20.10;56.59
39449;BME280;25151;45.566;9.382;2023-03-26T00:12:12;99279.44;;;20.09;56.60
39449;BME280;25151;45.566;9.382;2023-03-26T00:15:13;99280.66;;;20.08;56.68
39449;BME280;25151;45.566;9.382;2023-03-26T00:18:14;99279.09;;;20.07;56.53
39449;BME280;25151;45.566;9.382;2023-03-26T00:21:17;99281.09;;;20.07;56.43
39449;BME280;25151;45.566;9.382;2023-03-26T00:24:20;99279.09;;;20.07;56.54
39449;BME280;25151;45.566;9.382;2023-03-26T00:27:21;99278.78;;;20.05;56.50
39449;BME280;25151;45.566;9.382;2023-03-26T00:30:23;99289.19;;;20.05;56.55
39449;BME280;25151;45.566;9.382;2023-03-26T00:33:24;99281.59;;;20.05;56.80
39449;BME280;25151;45.566;9.382;2023-03-26T00:36:25;99267.25;;;20.03;56.72
39449;BME280;25151;45.566;9.382;2023-03-26T00:39:27;99261.66;;;20.03;56.78
39449;BME280;25151;45.566;9.382;2023-03-26T00:42:28;99248.91;;;20.02;56.85
39449;BME280;25151;45.566;9.382;2023-03-26T00:45:29;99250.47;;;20.03;56.71
39449;BME280;25151;45.566;9.382;2023-03-26T00:48:30;99244.56;;;20.01;56.80
39449;BME280;25151;45.566;9.382;2023-03-26T00:51:33;99238.97;;;20.01;56.77
39449;BME280;25151;45.566;9.382;2023-03-26T00:54:34;99234.59;;;20.00;56.83
39449;BME280;25151;45.566;9.382;2023-03-26T00:57:35;99227.44;;;19.99;56.95
39449;BME280;25151;45.566;9.382;2023-03-26T01:00:50;99212.66;;;19.99;56.74
39449;BME280;25151;45.566;9.382;2023-03-26T01:03:52;99209.88;;;19.99;56.59
39449;BME280;25151;45.566;9.382;2023-03-26T01:07:01;99216.25;;;19.99;56.70
39449;BME280;25151;45.566;9.382;2023-03-26T01:10:03;99213.91;;;19.98;56.76
39449;BME280;25151;45.566;9.382;2023-03-26T01:13:04;99218.72;;;19.97;56.98
39449;BME280;25151;45.566;9.382;2023-03-26T01:16:09;99214.69;;;19.98;56.76
39449;BME280;25151;45.566;9.382;2023-03-26T01:22:50;99208.78;;;19.96;56.72
39449;BME280;25151;45.566;9.382;2023-03-26T01:26:15;99217.19;;;19.96;56.72
39449;BME280;25151;45.566;9.382;2023-03-26T01:29:32;99204.41;;;19.95;56.94
39449;BME280;25151;45.566;9.382;2023-03-26T01:35:55;99205.66;;;19.94;56.74
39449;BME280;25151;45.566;9.382;2023-03-26T01:39:25;99218.09;;;19.93;56.81
39449;BME280;25151;45.566;9.382;2023-03-26T01:42:40;99211.72;;;19.93;56.92
39449;BME280;25151;45.566;9.382;2023-03-26T01:45:45;99206.91;;;19.93;56.82
39449;BME280;25151;45.566;9.382;2023-03-26T01:48:47;99199.75;;;19.92;57.07
39449;BME280;25151;45.566;9.382;2023-03-26T01:51:49;99209.34;;;19.91;56.67
39449;BME280;25151;45.566;9.382;2023-03-26T01:54:53;99196.63;;;19.90;56.65
39449;BME280;25151;45.566;9.382;2023-03-26T01:58:04;99205.34;;;19.92;56.83
39449;BME280;25151;45.566;9.382;2023-03-26T02:04:33;99202.22;;;19.90;56.80
39449;BME280;25151;45.566;9.382;2023-03-26T02:07:43;99200.66;;;19.89;56.88
39449;BME280;25151;45.566;9.382;2023-03-26T02:10:54;99211.84;;;19.89;56.72
39449;BME280;25151;45.566;9.382;2023-03-26T02:13:57;99198.31;;;19.87;56.85
39449;BME280;25151;45.566;9.382;2023-03-26T02:16:58;99210.31;;;19.88;56.76
39449;BME280;25151;45.566;9.382;2023-03-26T02:20:00;99232.69;;;19.88;56.63
39449;BME280;25151;45.566;9.382;2023-03-26T02:23:05;99238.28;;;19.88;56.96
39449;BME280;25151;45.566;9.382;2023-03-26T02:26:09;99236.69;;;19.87;56.89
39449;BME280;25151;45.566;9.382;2023-03-26T02:29:12;99236.41;;;19.85;56.93
39449;BME280;25151;45.566;9.382;2023-03-26T02:32:14;99233.59;;;19.85;57.03
39449;BME280;25151;45.566;9.382;2023-03-26T02:35:15;99237.63;;;19.84;56.98
39449;BME280;25151;45.566;9.382;2023-03-26T02:38:16;99248.03;;;19.83;56.89
39449;BME280;25151;45.566;9.382;2023-03-26T02:41:19;99248.84;;;19.84;56.97
39449;BME280;25151;45.566;9.382;2023-03-26T02:44:20;99243.22;;;19.84;56.84
39449;BME280;25151;45.566;9.382;2023-03-26T02:47:20;99243.69;;;19.82;56.95
39449;BME280;25151;45.566;9.382;2023-03-26T02:50:21;99244.44;;;19.83;56.96
39449;BME280;25151;45.566;9.382;2023-03-26T02:53:23;99247.25;;;19.83;56.76
39449;BME280;25151;45.566;9.382;2023-03-26T02:56:30;99245.69;;;19.82;56.90
39449;BME280;25151;45.566;9.382;2023-03-26T02:59:33;99248.50;;;19.82;56.93
39449;BME280;25151;45.566;9.382;2023-03-26T03:02:34;99238.56;;;19.81;57.11
39449;BME280;25151;45.566;9.382;2023-03-26T03:05:38;99242.59;;;19.80;57.03
39449;BME280;25151;45.566;9.382;2023-03-26T03:08:42;99238.56;;;19.81;57.04
39449;BME280;25151;45.566;9.382;2023-03-26T03:11:45;99223.44;;;19.78;56.97
39449;BME280;25151;45.566;9.382;2023-03-26T03:14:46;99230.59;;;19.79;56.81
39449;BME280;25151;45.566;9.382;2023-03-26T03:17:47;99233.09;;;19.77;57.10
39449;BME280;25151;45.566;9.382;2023-03-26T03:20:47;99236.19;;;19.79;56.89
39449;BME280;25151;45.566;9.382;2023-03-26T03:23:49;99231.06;;;19.78;56.88
39449;BME280;25151;45.566;9.382;2023-03-26T03:26:50;99234.63;;;19.78;56.97
39449;BME280;25151;45.566;9.382;2023-03-26T03:29:54;99235.09;;;19.77;57.25
39449;BME280;25151;45.566;9.382;2023-03-26T03:32:55;99223.91;;;19.77;56.76
39449;BME280;25151;45.566;9.382;2023-03-26T03:35:57;99211.94;;;19.76;56.93
39449;BME280;25151;45.566;9.382;2023-03-26T03:38:58;99208.34;;;19.76;57.28
39449;BME280;25151;45.566;9.382;2023-03-26T03:42:01;99208.34;;;19.76;56.95
39449;BME280;25151;45.566;9.382;2023-03-26T03:45:03;99211.16;;;19.76;56.96
39449;BME280;25151;45.566;9.382;2023-03-26T03:48:05;99219.53;;;19.76;57.07
39449;BME280;25151;45.566;9.382;2023-03-26T03:51:06;99213.63;;;19.74;57.08
39449;BME280;25151;45.566;9.382;2023-03-26T03:54:07;99215.97;;;19.75;57.10
39449;BME280;25151;45.566;9.382;2023-03-26T03:57:08;99209.59;;;19.75;56.76
39449;BME280;25151;45.566;9.382;2023-03-26T04:00:10;99214.88;;;19.73;57.05
39449;BME280;25151;45.566;9.382;2023-03-26T04:03:12;99223.28;;;19.73;57.01
39449;BME280;25151;45.566;9.382;2023-03-26T04:06:14;99226.06;;;19.73;57.08
39449;BME280;25151;45.566;9.382;2023-03-26T04:09:18;99230.09;;;19.72;57.17
39449;BME280;25151;45.566;9.382;2023-03-26T04:12:19;99231.66;;;19.73;57.03
39449;BME280;25151;45.566;9.382;2023-03-26T04:15:20;99230.88;;;19.72;57.09
39449;BME280;25151;45.566;9.382;2023-03-26T04:18:21;99231.66;;;19.73;57.03
39449;BME280;25151;45.566;9.382;2023-03-26T04:21:23;99241.28;;;19.72;57.04
39449;BME280;25151;45.566;9.382;2023-03-26T04:24:26;99237.25;;;19.73;56.70
39449;BME280;25151;45.566;9.382;2023-03-26T04:27:29;99240.50;;;19.71;56.91
39449;BME280;25151;45.566;9.382;2023-03-26T04:30:34;99243.75;;;19.70;57.24
39449;BME280;25151;45.566;9.382;2023-03-26T04:33:36;99240.63;;;19.68;57.08
39449;BME280;25151;45.566;9.382;2023-03-26T04:36:39;99243.75;;;19.70;57.16
39449;BME280;25151;45.566;9.382;2023-03-26T04:39:41;99246.56;;;19.70;57.23
39449;BME280;25151;45.566;9.382;2023-03-26T04:42:44;99250.13;;;19.70;57.16
39449;BME280;25151;45.566;9.382;2023-03-26T04:45:45;99254.94;;;19.70;57.08
39449;BME280;25151;45.566;9.382;2023-03-26T04:48:50;99260.53;;;19.70;56.98
39449;BME280;25151;45.566;9.382;2023-03-26T04:51:51;99253.06;;;19.67;57.08
39449;BME280;25151;45.566;9.382;2023-03-26T04:54:52;99256.19;;;19.69;57.15
39449;BME280;25151;45.566;9.382;2023-03-26T04:57:55;99251.81;;;19.68;57.12
39449;BME280;25151;45.566;9.382;2023-03-26T05:00:57;99247.81;;;19.69;57.10
39449;BME280;25151;45.566;9.382;2023-03-26T05:04:00;99242.22;;;19.69;57.26
39449;BME280;25151;45.566;9.382;2023-03-26T05:07:01;99235.03;;;19.68;56.98
39449;BME280;25151;45.566;9.382;2023-03-26T05:10:03;99231.47;;;19.67;57.05
39449;BME280;25151;45.566;9.382;2023-03-26T05:13:04;99234.72;;;19.65;57.26
39449;BME280;25151;45.566;9.382;2023-03-26T05:16:07;99226.34;;;19.65;57.08
39449;BME280;25151;45.566;9.382;2023-03-26T05:19:08;99229.59;;;19.64;57.12
39449;BME280;25151;45.566;9.382;2023-03-26T05:22:09;99223.53;;;19.65;57.12
39449;BME280;25151;45.566;9.382;2023-03-26T05:25:10;99226.34;;;19.65;57.12
39449;BME280;25151;45.566;9.382;2023-03-26T05:28:11;99222.44;;;19.63;57.22
39449;BME280;25151;45.566;9.382;2023-03-26T05:31:12;99212.00;;;19.63;57.11
39449;BME280;25151;45.566;9.382;2023-03-26T05:34:15;99206.41;;;19.63;57.09
39449;BME280;25151;45.566;9.382;2023-03-26T05:37:15;99201.63;;;19.64;56.86
39449;BME280;25151;45.566;9.382;2023-03-26T05:40:17;99200.06;;;19.63;57.23
39449;BME280;25151;45.566;9.382;2023-03-26T05:43:18;99208.00;;;19.64;56.99
39449;BME280;25151;45.566;9.382;2023-03-26T05:46:19;99223.84;;;19.68;57.00
39449;BME280;25151;45.566;9.382;2023-03-26T05:49:21;99225.09;;;19.67;56.90
39449;BME280;25151;45.566;9.382;2023-03-26T05:52:22;99220.41;;;19.63;57.27
39449;BME280;25151;45.566;9.382;2023-03-26T05:55:22;99223.84;;;19.68;57.01
39449;BME280;25151;45.566;9.382;2023-03-26T05:58:24;99230.69;;;19.67;57.18
39449;BME280;25151;45.566;9.382;2023-03-26T06:01:25;99219.50;;;19.67;57.10
39449;BME280;25151;45.566;9.382;2023-03-26T06:04:29;99219.38;;;19.70;56.75
39449;BME280;25151;45.566;9.382;2023-03-26T06:07:31;99215.78;;;19.70;56.93
39449;BME280;25151;45.566;9.382;2023-03-26T06:10:36;99232.56;;;19.70;56.85
39449;BME280;25151;45.566;9.382;2023-03-26T06:13:38;99236.63;;;19.69;57.08
39449;BME280;25151;45.566;9.382;2023-03-26T06:16:39;99250.91;;;19.71;56.85
39449;BME280;25151;45.566;9.382;2023-03-26T06:19:40;99246.09;;;19.71;57.04
39449;BME280;25151;45.566;9.382;2023-03-26T06:22:41;99236.63;;;19.69;56.99
39449;BME280;25151;45.566;9.382;2023-03-26T06:25:42;99243.75;;;19.70;57.13
39449;BME280;25151;45.566;9.382;2023-03-26T06:28:44;99239.72;;;19.71;57.00
39449;BME280;25151;45.566;9.382;2023-03-26T06:31:45;99244.06;;;19.72;56.98
39449;BME280;25151;45.566;9.382;2023-03-26T06:34:46;99238.47;;;19.72;56.94
39449;BME280;25151;45.566;9.382;2023-03-26T06:37:47;99232.44;;;19.73;56.99
39449;BME280;25151;45.566;9.382;2023-03-26T06:40:48;99225.28;;;19.72;57.21
39449;BME280;25151;45.566;9.382;2023-03-26T06:43:48;99218.91;;;19.72;56.99
39449;BME280;25151;45.566;9.382;2023-03-26T06:46:52;99216.09;;;19.72;57.18
39449;BME280;25151;45.566;9.382;2023-03-26T06:49:53;99215.66;;;19.73;57.20
39449;BME280;25151;45.566;9.382;2023-03-26T06:52:54;99202.91;;;19.72;57.14
39449;BME280;25151;45.566;9.382;2023-03-26T06:55:55;99200.56;;;19.71;57.25
39449;BME280;25151;45.566;9.382;2023-03-26T06:58:56;99200.13;;;19.72;57.15
39449;BME280;25151;45.566;9.382;2023-03-26T07:01:57;99196.53;;;19.72;57.28
39449;BME280;25151;45.566;9.382;2023-03-26T07:05:01;99190.94;;;19.72;57.03
39449;BME280;25151;45.566;9.382;2023-03-26T07:08:02;99188.13;;;19.72;57.14
39449;BME280;25151;45.566;9.382;2023-03-26T07:11:03;99184.88;;;19.73;57.19
39449;BME280;25151;45.566;9.382;2023-03-26T07:14:07;99181.31;;;19.73;57.29
39449;BME280;25151;45.566;9.382;2023-03-26T07:17:07;99182.09;;;19.73;57.17
39449;BME280;25151;45.566;9.382;2023-03-26T07:20:11;99173.69;;;19.73;57.12
39449;BME280;25151;45.566;9.382;2023-03-26T07:23:12;99175.59;;;19.76;57.30
39449;BME280;25151;45.566;9.382;2023-03-26T07:26:35;99194.69;;;19.78;57.03
39449;BME280;25151;45.566;9.382;2023-03-26T07:30:02;99190.66;;;19.79;57.30
39449;BME280;25151;45.566;9.382;2023-03-26T07:33:09;99201.06;;;19.78;57.13
39449;BME280;25151;45.566;9.382;2023-03-26T07:36:24;99196.25;;;19.79;57.29
39449;BME280;25151;45.566;9.382;2023-03-26T07:39:43;99175.44;;;19.80;57.12
39449;BME280;25151;45.566;9.382;2023-03-26T07:42:52;99154.28;;;19.79;57.11
39449;BME280;25151;45.566;9.382;2023-03-26T07:45:54;99129.88;;;19.79;57.18
39449;BME280;25151;45.566;9.382;2023-03-26T07:48:55;99114.69;;;19.80;57.06
39449;BME280;25151;45.566;9.382;2023-03-26T07:51:58;99116.38;;;19.78;56.33
39449;BME280;25151;45.566;9.382;2023-03-26T07:54:59;99116.03;;;19.76;56.53
39449;BME280;25151;45.566;9.382;2023-03-26T08:15:02;99142.03;;;19.76;54.66
39449;BME280;25151;45.566;9.382;2023-03-26T08:21:36;99143.56;;;19.77;54.53
39449;BME280;25151;45.566;9.382;2023-03-26T08:28:03;99131.59;;;19.77;54.25
39449;BME280;25151;45.566;9.382;2023-03-26T08:31:11;99119.94;;;19.78;54.26
39449;BME280;25151;45.566;9.382;2023-03-26T08:34:14;99113.91;;;19.80;54.09
39449;BME280;25151;45.566;9.382;2023-03-26T08:37:16;99114.69;;;19.80;53.94
39449;BME280;25151;45.566;9.382;2023-03-26T08:57:49;99078.94;;;19.84;53.70
39449;BME280;25151;45.566;9.382;2023-03-26T09:01:05;99073.03;;;19.82;53.70
39449;BME280;25151;45.566;9.382;2023-03-26T09:11:09;99056.09;;;19.86;54.08
39449;BME280;25151;45.566;9.382;2023-03-26T09:17:40;99035.25;;;19.87;54.04
39449;BME280;25151;45.566;9.382;2023-03-26T09:28:03;99047.06;;;19.91;53.90
39449;BME280;25151;45.566;9.382;2023-03-26T09:42:22;99008.22;;;19.93;54.15
39449;BME280;25151;45.566;9.382;2023-03-26T09:49:32;98988.94;;;19.95;54.32
39449;BME280;25151;45.566;9.382;2023-03-26T09:52:54;98978.84;;;19.98;54.31
39449;BME280;25151;45.566;9.382;2023-03-26T10:05:57;98994.56;;;20.04;54.56
39449;BME280;25151;45.566;9.382;2023-03-26T10:09:17;99006.69;;;20.01;54.47
39449;BME280;25151;45.566;9.382;2023-03-26T10:16:44;98999.53;;;20.00;54.60
39449;BME280;25151;45.566;9.382;2023-03-26T10:30:17;98981.19;;;19.99;55.05
39449;BME280;25151;45.566;9.382;2023-03-26T10:33:24;98987.56;;;20.00;55.12
39449;BME280;25151;45.566;9.382;2023-03-26T10:36:36;98974.03;;;19.98;55.13
39449;BME280;25151;45.566;9.382;2023-03-26T10:39:56;98971.56;;;20.00;55.35
39449;BME280;25151;45.566;9.382;2023-03-26T10:43:23;98961.59;;;19.99;55.24
39449;BME280;25151;45.566;9.382;2023-03-26T10:55:59;98918.06;;;19.98;55.62
39449;BME280;25151;45.566;9.382;2023-03-26T10:59:23;98929.09;;;20.02;55.73
39449;BME280;25151;45.566;9.382;2023-03-26T11:12:38;98912.31;;;20.02;55.75
39449;BME280;25151;45.566;9.382;2023-03-26T11:19:48;98901.44;;;20.04;55.59
39449;BME280;25151;45.566;9.382;2023-03-26T11:33:28;98909.03;;;20.22;55.55
39449;BME280;25151;45.566;9.382;2023-03-26T11:36:38;98900.97;;;20.24;55.44
39449;BME280;25151;45.566;9.382;2023-03-26T11:39:49;98888.03;;;20.26;55.41
39449;BME280;25151;45.566;9.382;2023-03-26T11:42:59;98886.31;;;20.29;55.56
39449;BME280;25151;45.566;9.382;2023-03-26T11:46:14;98891.28;;;20.34;55.54
39449;BME280;25151;45.566;9.382;2023-03-26T11:49:19;98881.94;;;20.37;55.38
39449;BME280;25151;45.566;9.382;2023-03-26T11:52:22;98871.97;;;20.45;55.29
39449;BME280;25151;45.566;9.382;2023-03-26T11:55:24;98863.56;;;20.54;55.29
39449;BME280;25151;45.566;9.382;2023-03-26T11:58:37;98850.47;;;20.60;55.11
39449;BME280;25151;45.566;9.382;2023-03-26T12:02:29;98847.78;;;20.75;54.95
39449;BME280;25151;45.566;9.382;2023-03-26T12:05:47;98828.78;;;20.79;55.03
39449;BME280;25151;45.566;9.382;2023-03-26T12:08:48;98834.81;;;20.87;54.97
39449;BME280;25151;45.566;9.382;2023-03-26T12:11:53;98837.56;;;20.96;54.89
39449;BME280;25151;45.566;9.382;2023-03-26T12:15:00;98844.84;;;21.03;54.91
39449;BME280;25151;45.566;9.382;2023-03-26T12:18:22;98836.53;;;21.08;54.43
39449;BME280;25151;45.566;9.382;2023-03-26T12:21:25;98822.63;;;21.14;54.94
39449;BME280;25151;45.566;9.382;2023-03-26T12:24:34;98815.63;;;21.19;54.71
39449;BME280;25151;45.566;9.382;2023-03-26T12:27:43;98796.28;;;21.21;54.34
39449;BME280;25151;45.566;9.382;2023-03-26T12:31:00;98793.78;;;21.23;54.75
39449;BME280;25151;45.566;9.382;2023-03-26T12:34:16;98780.38;;;21.27;54.65
39449;BME280;25151;45.566;9.382;2023-03-26T12:37:37;98785.47;;;21.28;54.42
39449;BME280;25151;45.566;9.382;2023-03-26T12:40:44;98788.09;;;21.32;54.72
39449;BME280;25151;45.566;9.382;2023-03-26T12:43:50;98770.97;;;21.30;54.69
39449;BME280;25151;45.566;9.382;2023-03-26T12:47:16;98768.47;;;21.32;54.47
39449;BME280;25151;45.566;9.382;2023-03-26T12:50:25;98768.00;;;21.33;54.41
39449;BME280;25151;45.566;9.382;2023-03-26T13:14:34;98762.72;;;21.35;54.72
39449;BME280;25151;45.566;9.382;2023-03-26T13:18:00;98776.25;;;21.37;54.70
39449;BME280;25151;45.566;9.382;2023-03-26T13:47:56;98769.50;;;21.20;54.90
39449;BME280;25151;45.566;9.382;2023-03-26T13:51:36;98771.06;;;21.21;54.62
39449;BME280;25151;45.566;9.382;2023-03-26T14:01:42;98757.03;;;21.21;54.74
39449;BME280;25151;45.566;9.382;2023-03-26T14:04:53;98755.50;;;21.20;54.38
39449;BME280;25151;45.566;9.382;2023-03-26T14:08:35;98753.16;;;21.18;54.67
39449;BME280;25151;45.566;9.382;2023-03-26T14:11:45;98740.88;;;21.16;54.42
39449;BME280;25151;45.566;9.382;2023-03-26T14:15:02;98748.03;;;21.17;54.40
39449;BME280;25151;45.566;9.382;2023-03-26T14:21:40;98764.56;;;21.15;54.75
39449;BME280;25151;45.566;9.382;2023-03-26T14:28:05;98751.50;;;21.11;54.66
39449;BME280;25151;45.566;9.382;2023-03-26T14:38:54;98719.13;;;21.10;54.46
39449;BME280;25151;45.566;9.382;2023-03-26T14:42:11;98683.94;;;21.09;54.64
39449;BME280;25151;45.566;9.382;2023-03-26T14:55:14;98604.09;;;21.05;54.63
39449;BME280;25151;45.566;9.382;2023-03-26T15:08:58;98540.72;;;21.07;54.79
39449;BME280;25151;45.566;9.382;2023-03-26T15:19:13;98611.72;;;21.04;54.89
39449;BME280;25151;45.566;9.382;2023-03-26T15:42:29;98503.78;;;20.94;55.28
39449;BME280;25151;45.566;9.382;2023-03-26T15:45:51;98491.78;;;20.94;55.38
39449;BME280;25151;45.566;9.382;2023-03-26T15:52:32;98495.88;;;20.93;55.26
39449;BME280;25151;45.566;9.382;2023-03-26T15:55:42;98505.53;;;20.92;55.12
39449;BME280;25151;45.566;9.382;2023-03-26T15:59:05;98503.50;;;20.92;55.45
39449;BME280;25151;45.566;9.382;2023-03-26T16:05:29;98493.56;;;20.91;54.94
39449;BME280;25151;45.566;9.382;2023-03-26T16:08:41;98492.78;;;20.91;55.18
39449;BME280;25151;45.566;9.382;2023-03-26T16:11:57;98498.84;;;20.89;54.88
39449;BME280;25151;45.566;9.382;2023-03-26T16:15:24;98479.25;;;20.89;55.02
39449;BME280;25151;45.566;9.382;2023-03-26T16:18:35;98447.34;;;20.86;54.98
39449;BME280;25151;45.566;9.382;2023-03-26T16:22:05;98484.56;;;20.87;55.30
39449;BME280;25151;45.566;9.382;2023-03-26T16:25:30;98501.38;;;20.87;55.16
39449;BME280;25151;45.566;9.382;2023-03-26T16:28:59;98509.00;;;20.86;55.10
39449;BME280;25151;45.566;9.382;2023-03-26T16:32:24;98521.00;;;20.87;55.18
39449;BME280;25151;45.566;9.382;2023-03-26T16:35:39;98511.78;;;20.86;54.97
39449;BME280;25151;45.566;9.382;2023-03-26T16:39:11;98513.06;;;20.85;55.15
39449;BME280;25151;45.566;9.382;2023-03-26T16:42:40;98499.34;;;20.87;55.38
39449;BME280;25151;45.566;9.382;2023-03-26T16:45:56;98467.47;;;20.85;55.32
39449;BME280;25151;45.566;9.382;2023-03-26T16:55:57;98455.47;;;20.84;55.22
39449;BME280;25151;45.566;9.382;2023-03-26T16:59:25;98441.97;;;20.83;55.05
39449;BME280;25151;45.566;9.382;2023-03-26T17:19:03;98409.31;;;20.80;55.61
39449;BME280;25151;45.566;9.382;2023-03-26T17:22:22;98400.59;;;20.78;55.54
39449;BME280;25151;45.566;9.382;2023-03-26T17:25:43;98411.81;;;20.78;55.52
39449;BME280;25151;45.566;9.382;2023-03-26T17:32:12;98417.91;;;20.76;55.58
39449;BME280;25151;45.566;9.382;2023-03-26T17:35:14;98389.59;;;20.74;55.50
39449;BME280;25151;45.566;9.382;2023-03-26T17:41:48;98395.69;;;20.73;55.60
39449;BME280;25151;45.566;9.382;2023-03-26T17:44:54;98394.91;;;20.72;56.00
39449;BME280;25151;45.566;9.382;2023-03-26T17:47:58;98380.16;;;20.72;55.87
39449;BME280;25151;45.566;9.382;2023-03-26T17:51:12;98391.34;;;20.72;55.97
39449;BME280;25151;45.566;9.382;2023-03-26T17:55:06;98390.59;;;20.71;55.73
39449;BME280;25151;45.566;9.382;2023-03-26T17:57:50;98381.38;;;20.71;55.60
39449;BME280;25151;45.566;9.382;2023-03-26T18:01:06;98398.50;;;20.73;55.89
39449;BME280;25151;45.566;9.382;2023-03-26T18:04:25;98394.91;;;20.72;55.99
39449;BME280;25151;45.566;9.382;2023-03-26T18:10:47;98429.00;;;20.71;55.97
39449;BME280;25151;45.566;9.382;2023-03-26T18:17:17;98457.00;;;20.71;56.03
39449;BME280;25151;45.566;9.382;2023-03-26T18:20:22;98461.06;;;20.70;55.92
39449;BME280;25151;45.566;9.382;2023-03-26T18:23:27;98463.41;;;20.71;55.96
39449;BME280;25151;45.566;9.382;2023-03-26T18:26:41;98455.47;;;20.70;55.55
39449;BME280;25151;45.566;9.382;2023-03-26T18:29:58;98448.34;;;20.69;56.01
39449;BME280;25151;45.566;9.382;2023-03-26T18:33:11;98454.72;;;20.69;55.97
39449;BME280;25151;45.566;9.382;2023-03-26T18:36:16;98448.03;;;20.67;55.99
39449;BME280;25151;45.566;9.382;2023-03-26T18:39:23;98436.38;;;20.68;56.23
39449;BME280;25151;45.566;9.382;2023-03-26T18:42:31;98434.81;;;20.67;56.06
39449;BME280;25151;45.566;9.382;2023-03-26T18:45:39;98427.97;;;20.68;56.21
39449;BME280;25151;45.566;9.382;2023-03-26T18:48:46;98416.00;;;20.68;56.11
39449;BME280;25151;45.566;9.382;2023-03-26T18:51:55;98422.81;;;20.67;56.00
39449;BME280;25151;45.566;9.382;2023-03-26T18:55:01;98423.63;;;20.67;55.87
39449;BME280;25151;45.566;9.382;2023-03-26T19:01:34;98432.03;;;20.67;55.88
39449;BME280;25151;45.566;9.382;2023-03-26T19:04:37;98422.53;;;20.65;56.18
39449;BME280;25151;45.566;9.382;2023-03-26T19:07:39;98419.75;;;20.65;56.06
39449;BME280;25151;45.566;9.382;2023-03-26T19:10:42;98423.81;;;20.63;55.95
39449;BME280;25151;45.566;9.382;2023-03-26T19:14:21;98418.22;;;20.63;56.14
39449;BME280;25151;45.566;9.382;2023-03-26T19:17:30;98416.66;;;20.62;56.00
39449;BME280;25151;45.566;9.382;2023-03-26T19:23:50;98429.09;;;20.61;56.10
39449;BME280;25151;45.566;9.382;2023-03-26T19:26:52;98441.09;;;20.62;56.00
39449;BME280;25151;45.566;9.382;2023-03-26T19:29:54;98441.56;;;20.60;56.16
39449;BME280;25151;45.566;9.382;2023-03-26T19:33:05;98448.72;;;20.61;55.94
39449;BME280;25151;45.566;9.382;2023-03-26T19:39:21;98444.88;;;20.59;56.09
39449;BME280;25151;45.566;9.382;2023-03-26T19:42:31;98445.63;;;20.59;55.87
39449;BME280;25151;45.566;9.382;2023-03-26T19:45:35;98452.47;;;20.58;56.06
39449;BME280;25151;45.566;9.382;2023-03-26T19:48:39;98441.75;;;20.57;55.91
39449;BME280;25151;45.566;9.382;2023-03-26T19:51:40;98436.16;;;20.57;55.91
39449;BME280;25151;45.566;9.382;2023-03-26T19:54:54;98448.91;;;20.58;55.79
39449;BME280;25151;45.566;9.382;2023-03-26T19:58:00;98449.41;;;20.56;55.93
39449;BME280;25151;45.566;9.382;2023-03-26T20:01:02;98439.47;;;20.55;55.79
39449;BME280;25151;45.566;9.382;2023-03-26T20:04:22;98433.84;;;20.55;55.90
39449;BME280;25151;45.566;9.382;2023-03-26T20:07:28;98429.78;;;20.56;55.94
39449;BME280;25151;45.566;9.382;2023-03-26T20:10:54;98417.81;;;20.56;55.79
39449;BME280;25151;45.566;9.382;2023-03-26T20:13:59;98421.09;;;20.54;56.00
39449;BME280;25151;45.566;9.382;2023-03-26T20:17:03;98409.13;;;20.54;55.70
39449;BME280;25151;45.566;9.382;2023-03-26T20:20:10;98411.44;;;20.55;55.91
39449;BME280;25151;45.566;9.382;2023-03-26T20:23:18;98404.28;;;20.54;56.03
39449;BME280;25151;45.566;9.382;2023-03-26T20:26:23;98405.56;;;20.53;55.88
39449;BME280;25151;45.566;9.382;2023-03-26T20:29:26;98399.19;;;20.53;55.95
39449;BME280;25151;45.566;9.382;2023-03-26T20:32:31;98409.13;;;20.54;55.69
39449;BME280;25151;45.566;9.382;2023-03-26T20:35:34;98399.94;;;20.53;55.87
39449;BME280;25151;45.566;9.382;2023-03-26T20:38:38;98402.75;;;20.53;55.59
39449;BME280;25151;45.566;9.382;2023-03-26T20:41:43;98395.63;;;20.52;55.76
39449;BME280;25151;45.566;9.382;2023-03-26T20:44:45;98383.66;;;20.52;55.68
39449;BME280;25151;45.566;9.382;2023-03-26T20:47:49;98378.81;;;20.52;55.66
39449;BME280;25151;45.566;9.382;2023-03-26T20:50:56;98382.66;;;20.55;55.50
39449;BME280;25151;45.566;9.382;2023-03-26T20:53:59;98400.25;;;20.55;55.84
39449;BME280;25151;45.566;9.382;2023-03-26T20:57:00;98400.72;;;20.54;55.78
39449;BME280;25151;45.566;9.382;2023-03-26T21:00:04;98401.97;;;20.53;56.00
39449;BME280;25151;45.566;9.382;2023-03-26T21:03:22;98401.22;;;20.52;55.66
39449;BME280;25151;45.566;9.382;2023-03-26T21:06:24;98405.56;;;20.53;55.78
39449;BME280;25151;45.566;9.382;2023-03-26T21:09:27;98411.91;;;20.54;55.76
39449;BME280;25151;45.566;9.382;2023-03-26T21:12:39;98420.81;;;20.52;55.54
39449;BME280;25151;45.566;9.382;2023-03-26T21:15:43;98422.84;;;20.52;55.61
39449;BME280;25151;45.566;9.382;2023-03-26T21:18:49;98429.22;;;20.52;55.62
39449;BME280;25151;45.566;9.382;2023-03-26T21:28:34;98423.63;;;20.52;55.55
39449;BME280;25151;45.566;9.382;2023-03-26T21:31:38;98423.31;;;20.50;55.68
39449;BME280;25151;45.566;9.382;2023-03-26T21:34:40;98433.28;;;20.51;55.74
39449;BME280;25151;45.566;9.382;2023-03-26T21:37:43;98430.47;;;20.51;55.66
39449;BME280;25151;45.566;9.382;2023-03-26T21:40:53;98425.34;;;20.50;55.50
39449;BME280;25151;45.566;9.382;2023-03-26T21:43:54;98423.81;;;20.49;55.69
39449;BME280;25151;45.566;9.382;2023-03-26T21:46:56;98418.19;;;20.49;55.54
39449;BME280;25151;45.566;9.382;2023-03-26T21:49:58;98404.66;;;20.47;55.75